createdAt,value
2018-04-30T00:00:39.743Z,997.46
2018-04-30T00:01:39.769Z,997.49
2018-04-30T00:02:39.795Z,997.40
2018-04-30T00:03:39.807Z,997.43
2018-04-30T00:04:39.833Z,997.40
2018-04-30T00:05:39.859Z,997.36
2018-04-30T00:06:39.873Z,997.36
2018-04-30T00:07:39.899Z,997.34
2018-04-30T00:08:39.926Z,997.33
2018-04-30T00:09:39.939Z,997.26
2018-04-30T00:10:39.965Z,997.31
2018-04-30T00:11:39.991Z,997.29
2018-04-30T00:12:40.004Z,997.28
2018-04-30T00:13:40.034Z,997.24
2018-04-30T00:14:40.056Z,997.24
2018-04-30T00:15:40.069Z,997.24
2018-04-30T00:16:40.095Z,997.21
2018-04-30T00:17:40.120Z,997.19
2018-04-30T00:18:40.136Z,997.18
2018-04-30T00:19:40.162Z,997.12
2018-04-30T00:20:40.187Z,997.15
2018-04-30T00:21:40.199Z,997.06
2018-04-30T00:23:40.252Z,997.03
2018-04-30T00:24:40.266Z,997.02
2018-04-30T00:25:40.291Z,996.98
2018-04-30T00:26:40.317Z,996.95
2018-04-30T00:27:40.344Z,996.95
2018-04-30T00:28:40.356Z,996.88
2018-04-30T00:29:40.382Z,996.92
2018-04-30T00:30:40.399Z,996.87
2018-04-30T00:31:40.426Z,996.90
2018-04-30T00:32:40.449Z,996.83
2018-04-30T00:33:40.473Z,996.85
2018-04-30T00:34:40.487Z,996.83
2018-04-30T00:35:40.514Z,996.81
2018-04-30T00:36:40.542Z,996.78
2018-04-30T00:37:40.555Z,996.81
2018-04-30T00:38:40.578Z,996.76
2018-04-30T00:39:40.592Z,996.79
2018-04-30T00:40:40.618Z,996.75
2018-04-30T00:41:40.644Z,996.82
2018-04-30T00:42:40.660Z,996.75
2018-04-30T00:43:40.684Z,996.73
2018-04-30T00:44:40.710Z,996.74
2018-04-30T00:45:40.722Z,996.76
2018-04-30T00:46:40.749Z,996.76
2018-04-30T00:47:40.779Z,996.76
2018-04-30T00:48:40.789Z,996.72
2018-04-30T00:49:40.818Z,996.77
2018-04-30T00:50:41.042Z,996.72
2018-04-30T00:51:40.854Z,996.72
2018-04-30T00:52:40.879Z,996.72
2018-04-30T00:53:40.909Z,996.70
2018-04-30T00:54:40.919Z,996.70
2018-04-30T00:55:40.949Z,996.66
2018-04-30T00:56:40.972Z,996.69
2018-04-30T00:57:40.984Z,996.63
2018-04-30T00:58:41.011Z,996.63
2018-04-30T00:59:41.036Z,996.58
2018-04-30T01:00:41.051Z,996.60
2018-04-30T01:01:41.278Z,996.59
2018-04-30T01:02:41.105Z,996.57
2018-04-30T01:03:41.161Z,996.55
2018-04-30T01:04:41.157Z,996.56
2018-04-30T01:05:41.155Z,996.54
2018-04-30T01:06:41.181Z,996.47
2018-04-30T01:07:41.211Z,996.47
2018-04-30T01:08:41.571Z,996.44
2018-04-30T01:09:41.247Z,996.43
2018-04-30T01:10:41.271Z,996.42
2018-04-30T01:11:41.287Z,996.41
2018-04-30T01:12:41.311Z,996.37
2018-04-30T01:13:41.339Z,996.32
2018-04-30T01:14:41.352Z,996.31
2018-04-30T01:15:41.376Z,996.28
2018-04-30T01:16:41.402Z,996.24
2018-04-30T01:17:41.418Z,996.27
2018-04-30T01:18:41.443Z,996.26
2018-04-30T01:19:41.468Z,996.30
2018-04-30T01:20:41.481Z,996.25
2018-04-30T01:21:41.569Z,996.30
2018-04-30T01:22:41.533Z,996.28
2018-04-30T01:23:41.547Z,996.36
2018-04-30T01:24:41.575Z,996.29
2018-04-30T01:25:41.587Z,996.28
2018-04-30T01:26:41.962Z,996.25
2018-04-30T01:27:41.638Z,996.29
2018-04-30T01:28:41.653Z,996.29
2018-04-30T01:29:41.679Z,996.29
2018-04-30T01:30:41.704Z,996.25
2018-04-30T01:31:41.730Z,996.18
2018-04-30T01:32:41.742Z,996.15
2018-04-30T01:33:41.769Z,996.14
2018-04-30T01:34:41.794Z,996.12
2018-04-30T01:35:41.809Z,996.14
2018-04-30T01:36:41.836Z,996.14
2018-04-30T01:37:41.848Z,996.15
2018-04-30T01:38:41.887Z,996.10
2018-04-30T01:39:41.899Z,996.05
2018-04-30T01:40:41.915Z,996.03
2018-04-30T01:41:41.939Z,996.01
2018-04-30T01:42:41.953Z,995.95
2018-04-30T01:43:41.978Z,996.00
2018-04-30T01:44:42.005Z,995.97
2018-04-30T01:45:42.019Z,995.96
2018-04-30T01:46:42.045Z,995.98
2018-04-30T01:47:42.071Z,996.00
2018-04-30T01:48:42.083Z,996.01
2018-04-30T01:49:42.111Z,995.91
2018-04-30T01:50:42.136Z,995.97
2018-04-30T01:51:42.149Z,995.92
2018-04-30T01:52:42.175Z,995.88
2018-04-30T01:53:42.189Z,995.93
2018-04-30T01:54:42.215Z,995.94
2018-04-30T01:55:42.240Z,995.86
2018-04-30T01:56:42.255Z,995.87
2018-04-30T01:57:42.280Z,995.80
2018-04-30T01:58:42.306Z,995.81
2018-04-30T01:59:42.318Z,995.75
2018-04-30T02:00:42.346Z,995.65
2018-04-30T02:01:42.370Z,995.65
2018-04-30T02:02:42.390Z,995.64
2018-04-30T02:03:42.411Z,995.55
2018-04-30T02:04:42.424Z,995.54
2018-04-30T02:05:42.450Z,995.55
2018-04-30T02:06:42.478Z,995.53
2018-04-30T02:07:42.492Z,995.52
2018-04-30T02:08:42.515Z,995.50
2018-04-30T02:09:42.541Z,995.50
2018-04-30T02:10:42.555Z,995.49
2018-04-30T02:11:42.580Z,995.51
2018-04-30T02:12:42.595Z,995.42
2018-04-30T02:13:42.620Z,995.41
2018-04-30T02:14:42.647Z,995.39
2018-04-30T02:15:42.659Z,995.41
2018-04-30T02:16:42.686Z,995.44
2018-04-30T02:17:42.711Z,995.36
2018-04-30T02:18:42.728Z,995.35
2018-04-30T02:19:42.818Z,995.29
2018-04-30T02:20:42.764Z,995.31
2018-04-30T02:21:42.790Z,995.24
2018-04-30T02:22:42.816Z,995.23
2018-04-30T02:23:42.831Z,995.15
2018-04-30T02:24:42.856Z,995.10
2018-04-30T02:25:42.871Z,995.10
2018-04-30T02:26:42.895Z,995.08
2018-04-30T02:27:42.922Z,995.08
2018-04-30T02:28:42.947Z,995.14
2018-04-30T02:29:42.962Z,995.05
2018-04-30T02:30:42.988Z,995.06
2018-04-30T02:31:43.001Z,995.02
2018-04-30T02:32:43.027Z,994.97
2018-04-30T02:33:43.080Z,995.00
2018-04-30T02:34:43.070Z,994.98
2018-04-30T02:35:43.092Z,994.98
2018-04-30T02:36:43.105Z,994.82
2018-04-30T02:37:43.131Z,994.96
2018-04-30T02:38:43.157Z,994.87
2018-04-30T02:39:43.171Z,994.86
2018-04-30T02:40:43.197Z,994.82
2018-04-30T02:41:43.211Z,994.80
2018-04-30T02:42:43.236Z,994.77
2018-04-30T02:43:43.263Z,994.71
2018-04-30T02:44:43.276Z,994.72
2018-04-30T02:45:43.302Z,994.71
2018-04-30T02:46:43.327Z,994.71
2018-04-30T02:47:43.341Z,994.66
2018-04-30T02:48:43.367Z,994.63
2018-04-30T02:49:43.380Z,994.61
2018-04-30T02:50:43.407Z,994.66
2018-04-30T02:51:43.454Z,994.61
2018-04-30T02:52:43.466Z,994.58
2018-04-30T02:53:43.493Z,994.55
2018-04-30T02:54:43.507Z,994.48
2018-04-30T02:55:43.531Z,994.53
2018-04-30T02:56:43.558Z,994.51
2018-04-30T02:57:43.572Z,994.47
2018-04-30T02:58:43.599Z,994.45
2018-04-30T02:59:43.623Z,994.46
2018-04-30T03:00:43.629Z,994.36
2018-04-30T03:01:43.657Z,994.37
2018-04-30T03:02:43.668Z,994.37
2018-04-30T03:03:43.693Z,994.34
2018-04-30T03:04:43.720Z,994.33
2018-04-30T03:05:43.734Z,994.29
2018-04-30T03:06:43.763Z,994.32
2018-04-30T03:07:43.775Z,994.24
2018-04-30T03:08:43.799Z,994.28
2018-04-30T03:09:43.859Z,994.32
2018-04-30T03:10:43.826Z,994.24
2018-04-30T03:11:43.852Z,994.24
2018-04-30T03:12:43.867Z,994.23
2018-04-30T03:13:43.891Z,994.25
2018-04-30T03:14:43.916Z,994.30
2018-04-30T03:15:43.933Z,994.26
2018-04-30T03:16:43.957Z,994.22
2018-04-30T03:17:43.970Z,994.21
2018-04-30T03:18:43.996Z,994.18
2018-04-30T03:19:44.035Z,994.13
2018-04-30T03:20:44.036Z,994.12
2018-04-30T03:21:44.061Z,994.12
2018-04-30T03:22:44.088Z,994.05
2018-04-30T03:23:44.100Z,994.08
2018-04-30T03:24:44.139Z,994.03
2018-04-30T03:25:44.145Z,994.03
2018-04-30T03:26:44.165Z,994.00
2018-04-30T03:27:44.191Z,994.00
2018-04-30T03:28:44.204Z,993.95
2018-04-30T03:29:44.231Z,993.94
2018-04-30T03:30:44.244Z,993.92
2018-04-30T03:31:44.271Z,993.92
2018-04-30T03:32:44.283Z,993.89
2018-04-30T03:33:44.311Z,993.90
2018-04-30T03:34:44.336Z,993.87
2018-04-30T03:35:44.350Z,993.90
2018-04-30T03:36:44.376Z,993.86
2018-04-30T03:37:44.388Z,993.85
2018-04-30T03:38:44.427Z,993.85
2018-04-30T03:39:44.441Z,993.81
2018-04-30T03:40:44.454Z,993.82
2018-04-30T03:41:44.484Z,993.80
2018-04-30T03:42:44.495Z,993.81
2018-04-30T03:43:44.518Z,993.83
2018-04-30T03:44:44.545Z,993.84
2018-04-30T03:45:44.560Z,993.81
2018-04-30T03:46:44.586Z,993.80
2018-04-30T03:47:44.598Z,993.76
2018-04-30T03:48:44.624Z,993.80
2018-04-30T03:49:44.699Z,993.85
2018-04-30T03:50:44.665Z,993.78
2018-04-30T03:51:44.690Z,993.72
2018-04-30T03:52:44.715Z,993.75
2018-04-30T03:53:44.730Z,993.76
2018-04-30T03:54:44.744Z,993.75
2018-04-30T03:55:44.768Z,993.80
2018-04-30T03:56:44.795Z,993.79
2018-04-30T03:57:44.807Z,993.76
2018-04-30T03:58:44.837Z,993.83
2018-04-30T03:59:44.848Z,993.78
2018-04-30T04:00:44.878Z,993.73
2018-04-30T04:01:44.900Z,993.80
2018-04-30T04:02:44.913Z,993.79
2018-04-30T04:03:44.938Z,993.81
2018-04-30T04:04:44.953Z,993.79
2018-04-30T04:05:44.979Z,993.74
2018-04-30T04:06:45.004Z,993.72
2018-04-30T04:07:45.018Z,993.68
2018-04-30T04:08:45.045Z,993.69
2018-04-30T04:09:45.058Z,993.64
2018-04-30T04:10:45.084Z,993.68
2018-04-30T04:11:45.098Z,993.67
2018-04-30T04:12:45.187Z,993.67
2018-04-30T04:13:45.150Z,993.68
2018-04-30T04:14:45.162Z,993.72
2018-04-30T04:15:45.189Z,993.67
2018-04-30T04:16:45.202Z,993.69
2018-04-30T04:17:45.227Z,993.66
2018-04-30T04:18:45.244Z,993.62
2018-04-30T04:19:45.267Z,993.62
2018-04-30T04:20:45.298Z,993.60
2018-04-30T04:21:45.309Z,993.57
2018-04-30T04:22:45.332Z,993.63
2018-04-30T04:23:45.345Z,993.63
2018-04-30T04:24:45.372Z,993.60
2018-04-30T04:25:45.401Z,993.61
2018-04-30T04:26:45.411Z,993.57
2018-04-30T04:27:45.438Z,993.60
2018-04-30T04:28:45.459Z,993.57
2018-04-30T04:29:45.478Z,993.54
2018-04-30T04:30:45.491Z,993.55
2018-04-30T04:31:45.516Z,993.56
2018-04-30T04:32:45.541Z,993.50
2018-04-30T04:33:45.555Z,993.53
2018-04-30T04:34:45.583Z,993.49
2018-04-30T04:35:45.595Z,993.52
2018-04-30T04:36:45.620Z,993.57
2018-04-30T04:37:45.648Z,993.53
2018-04-30T04:38:45.660Z,993.46
2018-04-30T04:39:45.687Z,993.51
2018-04-30T04:40:45.699Z,993.49
2018-04-30T04:41:45.783Z,993.53
2018-04-30T04:42:45.752Z,993.51
2018-04-30T04:43:45.765Z,993.57
2018-04-30T04:44:45.791Z,993.58
2018-04-30T04:45:45.805Z,993.55
2018-04-30T04:46:45.831Z,993.63
2018-04-30T04:47:45.857Z,993.62
2018-04-30T04:48:45.870Z,993.65
2018-04-30T04:49:45.896Z,993.65
2018-04-30T04:50:45.910Z,993.63
2018-04-30T04:51:45.935Z,993.60
2018-04-30T04:52:45.949Z,993.60
2018-04-30T04:53:45.975Z,993.56
2018-04-30T04:54:46.003Z,993.57
2018-04-30T04:55:46.014Z,993.46
2018-04-30T04:56:46.040Z,993.47
2018-04-30T04:57:46.065Z,993.42
2018-04-30T04:58:46.113Z,993.39
2018-04-30T04:59:46.106Z,993.41
2018-04-30T05:00:46.119Z,993.36
2018-04-30T05:01:46.145Z,993.30
2018-04-30T05:02:46.170Z,993.32
2018-04-30T05:03:46.185Z,993.34
2018-04-30T05:04:46.211Z,993.29
2018-04-30T05:05:46.223Z,993.30
2018-04-30T05:06:46.253Z,993.34
2018-04-30T05:07:46.276Z,993.34
2018-04-30T05:08:46.290Z,993.38
2018-04-30T05:09:46.316Z,993.33
2018-04-30T05:10:46.347Z,993.26
2018-04-30T05:11:46.358Z,993.30
2018-04-30T05:12:46.380Z,993.36
2018-04-30T05:13:46.407Z,993.29
2018-04-30T05:14:46.420Z,993.38
2018-04-30T05:15:46.447Z,993.38
2018-04-30T05:16:46.464Z,993.42
2018-04-30T05:17:46.485Z,993.40
2018-04-30T05:18:46.510Z,993.33
2018-04-30T05:19:46.525Z,993.36
2018-04-30T05:20:46.552Z,993.31
2018-04-30T05:21:46.579Z,993.38
2018-04-30T05:22:46.591Z,993.36
2018-04-30T05:23:46.615Z,993.38
2018-04-30T05:24:46.644Z,993.43
2018-04-30T05:25:46.656Z,993.40
2018-04-30T05:26:46.683Z,993.37
2018-04-30T05:27:46.709Z,993.41
2018-04-30T05:28:46.723Z,993.39
2018-04-30T05:29:46.746Z,993.33
2018-04-30T05:30:46.781Z,993.38
2018-04-30T05:31:46.802Z,993.37
2018-04-30T05:32:46.814Z,993.38
2018-04-30T05:33:46.853Z,993.30
2018-04-30T05:34:46.852Z,993.31
2018-04-30T05:35:46.879Z,993.27
2018-04-30T05:36:46.904Z,993.28
2018-04-30T05:37:46.929Z,993.26
2018-04-30T05:38:46.943Z,993.22
2018-04-30T05:39:46.969Z,993.23
2018-04-30T05:40:46.996Z,993.19
2018-04-30T05:41:47.008Z,993.19
2018-04-30T05:42:47.034Z,993.18
2018-04-30T05:43:47.060Z,993.17
2018-04-30T05:44:47.091Z,993.18
2018-04-30T05:45:47.100Z,993.16
2018-04-30T05:46:47.126Z,993.11
2018-04-30T05:47:47.152Z,993.17
2018-04-30T05:48:47.166Z,993.14
2018-04-30T05:49:47.204Z,993.16
2018-04-30T05:50:47.217Z,993.17
2018-04-30T05:51:47.243Z,993.15
2018-04-30T05:52:47.259Z,993.14
2018-04-30T05:53:47.285Z,993.05
2018-04-30T05:54:47.311Z,993.00
2018-04-30T05:55:47.339Z,992.98
2018-04-30T05:56:47.353Z,992.96
2018-04-30T05:57:47.375Z,992.93
2018-04-30T05:58:47.400Z,992.97
2018-04-30T05:59:47.427Z,992.95
2018-04-30T06:00:47.456Z,992.91
2018-04-30T06:01:47.467Z,992.90
2018-04-30T06:02:47.492Z,992.84
2018-04-30T06:03:47.518Z,992.83
2018-04-30T06:04:47.544Z,992.84
2018-04-30T06:05:47.557Z,992.83
2018-04-30T06:06:47.598Z,992.82
2018-04-30T06:07:47.608Z,992.82
2018-04-30T06:08:47.636Z,992.81
2018-04-30T06:09:47.649Z,992.78
2018-04-30T06:10:47.679Z,992.79
2018-04-30T06:11:47.701Z,992.78
2018-04-30T06:12:47.727Z,992.76
2018-04-30T06:13:47.741Z,992.76
2018-04-30T06:14:47.765Z,992.77
2018-04-30T06:15:47.793Z,992.77
2018-04-30T06:16:47.824Z,992.75
2018-04-30T06:17:47.833Z,992.82
2018-04-30T06:18:47.857Z,992.76
2018-04-30T06:19:47.884Z,992.73
2018-04-30T06:20:47.910Z,992.77
2018-04-30T06:21:47.923Z,992.76
2018-04-30T06:22:47.948Z,992.75
2018-04-30T06:23:47.974Z,992.72
2018-04-30T06:24:48.000Z,992.69
2018-04-30T06:25:48.026Z,992.69
2018-04-30T06:26:48.165Z,992.60
2018-04-30T06:27:48.067Z,992.60
2018-04-30T06:28:48.092Z,992.59
2018-04-30T06:29:48.120Z,992.46
2018-04-30T06:30:48.147Z,992.46
2018-04-30T06:31:48.170Z,992.48
2018-04-30T06:32:48.195Z,992.38
2018-04-30T06:33:48.211Z,992.43
2018-04-30T06:34:48.252Z,992.45
2018-04-30T06:35:48.306Z,992.50
2018-04-30T06:36:48.287Z,992.47
2018-04-30T06:37:48.313Z,992.47
2018-04-30T06:38:48.339Z,992.41
2018-04-30T06:39:48.366Z,992.41
2018-04-30T06:40:48.391Z,992.39
2018-04-30T06:41:48.417Z,992.42
2018-04-30T06:42:48.442Z,992.44
2018-04-30T06:43:48.484Z,992.35
2018-04-30T06:44:48.497Z,992.41
2018-04-30T06:45:48.520Z,992.39
2018-04-30T06:46:48.546Z,992.33
2018-04-30T06:47:48.572Z,992.27
2018-04-30T06:48:48.598Z,992.33
2018-04-30T06:49:48.637Z,992.27
2018-04-30T06:50:48.656Z,992.30
2018-04-30T06:51:48.692Z,992.33
2018-04-30T06:52:48.716Z,992.37
2018-04-30T06:53:48.741Z,992.28
2018-04-30T06:54:48.770Z,992.27
2018-04-30T06:55:48.794Z,992.28
2018-04-30T06:56:48.820Z,992.27
2018-04-30T06:57:48.845Z,992.20
2018-04-30T06:58:48.872Z,992.20
2018-04-30T06:59:48.909Z,992.23
2018-04-30T07:00:48.935Z,992.24
2018-04-30T07:01:48.960Z,992.21
2018-04-30T07:02:48.986Z,992.26
2018-04-30T07:03:49.026Z,992.23
2018-04-30T07:04:49.039Z,992.24
2018-04-30T07:05:49.078Z,992.27
2018-04-30T07:06:49.104Z,992.22
2018-04-30T07:07:49.130Z,992.18
2018-04-30T07:08:49.157Z,992.17
2018-04-30T07:09:49.194Z,992.12
2018-04-30T07:10:49.219Z,992.09
2018-04-30T07:11:49.248Z,992.11
2018-04-30T07:12:49.271Z,992.07
2018-04-30T07:13:49.311Z,992.07
2018-04-30T07:14:49.337Z,992.04
2018-04-30T07:15:49.363Z,992.08
2018-04-30T07:16:49.392Z,992.13
2018-04-30T07:17:49.426Z,992.10
2018-04-30T07:18:49.452Z,992.10
2018-04-30T07:19:49.491Z,992.06
2018-04-30T07:20:49.505Z,992.09
2018-04-30T07:21:49.544Z,992.11
2018-04-30T07:22:49.574Z,992.13
2018-04-30T07:23:49.608Z,992.14
2018-04-30T07:24:49.646Z,992.17
2018-04-30T07:25:49.659Z,992.20
2018-04-30T07:26:49.686Z,992.21
2018-04-30T07:27:49.799Z,992.13
2018-04-30T07:28:49.751Z,992.16
2018-04-30T07:29:49.776Z,992.12
2018-04-30T07:30:49.815Z,992.07
2018-04-30T07:31:49.839Z,992.09
2018-04-30T07:32:49.867Z,992.11
2018-04-30T07:33:49.905Z,992.11
2018-04-30T07:34:49.934Z,992.11
2018-04-30T07:35:49.968Z,992.13
2018-04-30T07:36:49.994Z,992.16
2018-04-30T07:37:50.034Z,992.11
2018-04-30T07:38:50.063Z,992.05
2018-04-30T07:39:50.097Z,992.02
2018-04-30T07:40:50.124Z,992.05
2018-04-30T07:41:50.149Z,992.03
2018-04-30T07:42:50.188Z,992.05
2018-04-30T07:43:50.215Z,991.97
2018-04-30T07:44:50.252Z,991.99
2018-04-30T07:45:50.292Z,991.99
2018-04-30T07:46:50.318Z,992.01
2018-04-30T07:47:50.344Z,992.03
2018-04-30T07:48:50.374Z,991.99
2018-04-30T07:49:50.410Z,992.02
2018-04-30T07:50:50.434Z,992.07
2018-04-30T07:51:50.473Z,992.04
2018-04-30T07:52:50.523Z,992.05
2018-04-30T07:53:50.535Z,992.02
2018-04-30T07:54:50.575Z,992.00
2018-04-30T07:55:50.600Z,992.00
2018-04-30T07:56:50.639Z,991.96
2018-04-30T07:57:50.666Z,991.98
2018-04-30T07:58:50.706Z,991.99
2018-04-30T07:59:50.732Z,991.96
2018-04-30T08:00:50.768Z,991.88
2018-04-30T08:01:50.796Z,991.85
2018-04-30T08:02:50.833Z,991.89
2018-04-30T08:03:50.872Z,991.94
2018-04-30T08:04:50.896Z,991.96
2018-04-30T08:05:50.936Z,991.93
2018-04-30T08:06:50.974Z,991.98
2018-04-30T08:07:51.002Z,991.93
2018-04-30T08:08:51.042Z,991.91
2018-04-30T08:09:51.064Z,991.95
2018-04-30T08:10:51.103Z,991.96
2018-04-30T08:11:51.143Z,991.90
2018-04-30T08:12:51.168Z,991.90
2018-04-30T08:13:51.205Z,991.92
2018-04-30T08:14:51.269Z,991.90
2018-04-30T08:15:51.270Z,991.86
2018-04-30T08:16:51.296Z,991.83
2018-04-30T08:17:51.336Z,991.86
2018-04-30T08:18:51.360Z,991.90
2018-04-30T08:19:51.405Z,991.99
2018-04-30T08:20:51.425Z,991.93
2018-04-30T08:21:51.462Z,992.04
2018-04-30T08:22:51.490Z,991.97
2018-04-30T08:23:51.519Z,991.93
2018-04-30T08:24:51.544Z,991.89
2018-04-30T08:25:51.580Z,991.87
2018-04-30T08:26:51.610Z,991.86
2018-04-30T08:27:51.643Z,991.82
2018-04-30T08:28:51.670Z,991.88
2018-04-30T08:29:51.696Z,991.89
2018-04-30T08:30:51.724Z,992.00
2018-04-30T08:31:51.760Z,991.97
2018-04-30T08:32:51.793Z,991.99
2018-04-30T08:33:51.812Z,991.97
2018-04-30T08:34:51.850Z,991.97
2018-04-30T08:35:51.890Z,992.01
2018-04-30T08:36:51.904Z,991.99
2018-04-30T08:38:52.031Z,992.04
2018-04-30T08:39:51.994Z,992.02
2018-04-30T08:40:52.020Z,992.04
2018-04-30T08:41:52.045Z,992.05
2018-04-30T08:42:52.073Z,992.03
2018-04-30T08:43:52.109Z,992.00
2018-04-30T08:44:52.134Z,992.03
2018-04-30T08:45:52.162Z,992.03
2018-04-30T08:46:52.189Z,992.06
2018-04-30T08:47:52.213Z,992.11
2018-04-30T08:48:52.239Z,992.09
2018-04-30T08:49:52.278Z,992.07
2018-04-30T08:50:52.304Z,992.10
2018-04-30T08:51:52.330Z,992.08
2018-04-30T08:52:52.356Z,992.08
2018-04-30T08:53:52.384Z,992.09
2018-04-30T08:54:52.420Z,992.12
2018-04-30T08:55:52.446Z,992.09
2018-04-30T08:56:52.476Z,992.19
2018-04-30T08:57:52.498Z,992.15
2018-04-30T08:58:52.524Z,992.12
2018-04-30T08:59:52.569Z,992.13
2018-04-30T09:00:52.589Z,992.16
2018-04-30T09:01:52.615Z,992.11
2018-04-30T09:02:52.641Z,992.16
2018-04-30T09:03:52.869Z,992.14
2018-04-30T09:04:52.692Z,992.14
2018-04-30T09:05:52.734Z,992.12
2018-04-30T09:06:52.959Z,992.13
2018-04-30T09:07:52.782Z,992.11
2018-04-30T09:08:52.809Z,992.16
2018-04-30T09:09:52.834Z,992.12
2018-04-30T09:10:52.861Z,992.14
2018-04-30T09:11:52.903Z,992.15
2018-04-30T09:12:52.925Z,992.17
2018-04-30T09:13:52.952Z,992.16
2018-04-30T09:14:53.027Z,992.29
2018-04-30T09:15:53.004Z,992.30
2018-04-30T09:16:53.053Z,992.24
2018-04-30T09:17:53.067Z,992.34
2018-04-30T09:18:53.093Z,992.34
2018-04-30T09:20:53.146Z,992.35
2018-04-30T09:21:53.183Z,992.31
2018-04-30T09:22:53.209Z,992.37
2018-04-30T09:23:53.257Z,992.25
2018-04-30T09:24:53.262Z,992.23
2018-04-30T09:25:53.288Z,992.34
2018-04-30T09:26:53.326Z,992.37
2018-04-30T09:27:53.353Z,992.36
2018-04-30T09:28:53.379Z,992.32
2018-04-30T09:29:53.416Z,992.31
2018-04-30T09:30:53.442Z,992.43
2018-04-30T09:31:53.468Z,992.41
2018-04-30T09:32:53.496Z,992.34
2018-04-30T09:33:53.520Z,992.38
2018-04-30T09:34:53.559Z,992.38
2018-04-30T09:35:53.573Z,992.41
2018-04-30T09:36:53.600Z,992.43
2018-04-30T09:37:53.886Z,992.50
2018-04-30T09:38:53.662Z,992.43
2018-04-30T09:39:53.688Z,992.47
2018-04-30T09:40:53.725Z,992.50
2018-04-30T09:41:53.741Z,992.55
2018-04-30T09:42:53.779Z,992.56
2018-04-30T09:43:53.805Z,992.61
2018-04-30T09:44:53.830Z,992.65
2018-04-30T09:45:53.857Z,992.70
2018-04-30T09:46:53.895Z,992.82
2018-04-30T09:47:53.922Z,992.77
2018-04-30T09:48:53.948Z,992.76
2018-04-30T09:49:53.972Z,992.76
2018-04-30T09:50:53.999Z,992.86
2018-04-30T09:51:54.042Z,992.81
2018-04-30T09:52:54.065Z,992.80
2018-04-30T09:53:54.090Z,992.89
2018-04-30T09:54:54.117Z,992.89
2018-04-30T09:55:54.153Z,992.98
2018-04-30T09:56:54.182Z,992.90
2018-04-30T09:57:54.230Z,992.97
2018-04-30T09:58:54.231Z,993.00
2018-04-30T09:59:54.271Z,993.10
2018-04-30T10:00:54.296Z,993.22
2018-04-30T10:01:54.322Z,993.17
2018-04-30T10:02:54.361Z,993.13
2018-04-30T10:03:54.387Z,993.30
2018-04-30T10:04:54.412Z,993.22
2018-04-30T10:05:54.440Z,993.22
2018-04-30T10:06:54.477Z,993.41
2018-04-30T10:07:54.505Z,993.58
2018-04-30T10:08:54.541Z,993.59
2018-04-30T10:09:54.569Z,993.52
2018-04-30T10:10:54.593Z,993.54
2018-04-30T10:11:54.633Z,993.61
2018-04-30T10:12:54.670Z,993.68
2018-04-30T10:13:54.685Z,993.77
2018-04-30T10:14:54.725Z,993.73
2018-04-30T10:15:54.748Z,993.66
2018-04-30T10:16:54.988Z,993.73
2018-04-30T10:17:54.813Z,993.86
2018-04-30T10:18:54.839Z,994.05
2018-04-30T10:19:54.889Z,993.85
2018-04-30T10:20:54.906Z,993.87
2018-04-30T10:21:54.935Z,993.89
2018-04-30T10:22:54.968Z,993.95
2018-04-30T10:23:55.018Z,994.02
2018-04-30T10:24:55.032Z,994.12
2018-04-30T10:25:55.057Z,994.13
2018-04-30T10:26:55.087Z,994.19
2018-04-30T10:27:55.123Z,994.19
2018-04-30T10:28:55.153Z,994.29
2018-04-30T10:29:55.187Z,994.37
2018-04-30T10:30:55.212Z,994.48
2018-04-30T10:31:55.240Z,994.40
2018-04-30T10:32:55.277Z,994.48
2018-04-30T10:33:55.303Z,994.41
2018-04-30T10:34:55.329Z,994.54
2018-04-30T10:35:55.367Z,994.50
2018-04-30T10:36:55.392Z,994.54
2018-04-30T10:37:55.519Z,994.51
2018-04-30T10:38:55.445Z,994.40
2018-04-30T10:39:55.489Z,994.38
2018-04-30T10:40:55.510Z,994.44
2018-04-30T10:41:55.536Z,994.39
2018-04-30T10:42:55.586Z,994.47
2018-04-30T10:43:55.599Z,994.64
2018-04-30T10:44:55.625Z,994.77
2018-04-30T10:45:55.729Z,994.76
2018-04-30T10:46:55.691Z,994.85
2018-04-30T10:47:55.717Z,994.80
2018-04-30T10:48:55.743Z,994.85
2018-04-30T10:49:55.770Z,994.74
2018-04-30T10:50:55.806Z,994.68
2018-04-30T10:51:55.833Z,994.67
2018-04-30T10:52:55.861Z,994.61
2018-04-30T10:53:55.897Z,994.76
2018-04-30T10:54:55.924Z,994.62
2018-04-30T10:55:55.973Z,994.77
2018-04-30T10:56:55.988Z,994.73
2018-04-30T10:57:56.013Z,994.74
2018-04-30T10:58:56.055Z,994.83
2018-04-30T10:59:56.079Z,994.88
2018-04-30T11:00:56.104Z,994.92
2018-04-30T11:01:56.143Z,994.92
2018-04-30T11:02:56.168Z,994.99
2018-04-30T11:03:56.209Z,994.97
2018-04-30T11:04:56.233Z,995.12
2018-04-30T11:05:56.261Z,995.08
2018-04-30T11:06:56.297Z,995.05
2018-04-30T11:07:56.324Z,995.00
2018-04-30T11:08:56.349Z,995.02
2018-04-30T11:09:56.388Z,995.03
2018-04-30T11:10:56.414Z,995.09
2018-04-30T11:11:56.440Z,995.13
2018-04-30T11:12:56.480Z,995.15
2018-04-30T11:14:56.530Z,995.25
2018-04-30T11:15:56.568Z,995.41
2018-04-30T11:16:56.597Z,995.36
2018-04-30T11:17:56.823Z,995.38
2018-04-30T11:18:56.647Z,995.24
2018-04-30T11:19:56.686Z,995.25
2018-04-30T11:20:56.711Z,995.26
2018-04-30T11:21:56.736Z,995.35
2018-04-30T11:22:56.762Z,995.40
2018-04-30T11:23:56.801Z,995.41
2018-04-30T11:24:56.828Z,995.32
2018-04-30T11:25:56.854Z,995.32
2018-04-30T11:26:56.880Z,995.28
2018-04-30T11:27:56.917Z,995.16
2018-04-30T11:28:56.943Z,995.30
2018-04-30T11:29:56.969Z,995.36
2018-04-30T11:30:57.008Z,995.50
2018-04-30T11:31:57.021Z,995.38
2018-04-30T11:32:57.048Z,995.38
2018-04-30T11:33:57.087Z,995.51
2018-04-30T11:34:57.113Z,995.53
2018-04-30T11:35:57.138Z,995.49
2018-04-30T11:36:57.165Z,995.55
2018-04-30T11:37:57.202Z,995.45
2018-04-30T11:38:57.241Z,995.55
2018-04-30T11:39:57.272Z,995.57
2018-04-30T11:40:57.279Z,995.60
2018-04-30T11:41:57.305Z,995.66
2018-04-30T11:42:57.332Z,995.67
2018-04-30T11:43:57.371Z,995.60
2018-04-30T11:44:57.404Z,995.69
2018-04-30T11:45:57.427Z,995.60
2018-04-30T11:46:57.448Z,995.62
2018-04-30T11:47:57.479Z,995.62
2018-04-30T11:48:57.512Z,995.68
2018-04-30T11:49:57.539Z,995.75
2018-04-30T11:50:57.564Z,995.68
2018-04-30T11:52:57.629Z,995.82
2018-04-30T11:53:57.656Z,995.77
2018-04-30T11:54:57.681Z,995.73
2018-04-30T11:55:57.707Z,995.75
2018-04-30T11:56:57.734Z,995.74
2018-04-30T11:57:57.772Z,995.77
2018-04-30T11:58:57.798Z,995.73
2018-04-30T11:59:57.832Z,995.79
2018-04-30T12:00:57.855Z,995.68
2018-04-30T12:01:57.888Z,995.75
2018-04-30T12:02:57.914Z,995.71
2018-04-30T12:03:57.940Z,995.79
2018-04-30T12:04:58.063Z,995.76
2018-04-30T12:05:58.004Z,995.80
2018-04-30T12:06:58.030Z,995.81
2018-04-30T12:07:58.069Z,995.82
2018-04-30T12:08:58.095Z,995.82
2018-04-30T12:09:58.121Z,995.77
2018-04-30T12:10:58.225Z,995.82
2018-04-30T12:11:58.184Z,995.80
2018-04-30T12:12:58.210Z,995.72
2018-04-30T12:13:58.240Z,995.82
2018-04-30T12:14:58.276Z,995.86
2018-04-30T12:15:58.292Z,995.97
2018-04-30T12:16:58.327Z,996.00
2018-04-30T12:17:58.354Z,995.90
2018-04-30T12:18:58.380Z,996.02
2018-04-30T12:19:58.406Z,995.97
2018-04-30T12:20:58.478Z,996.07
2018-04-30T12:21:58.551Z,996.25
2018-04-30T12:22:58.496Z,996.42
2018-04-30T12:23:58.521Z,996.44
2018-04-30T12:24:58.548Z,996.49
2018-04-30T12:25:58.573Z,996.49
2018-04-30T12:26:58.601Z,996.53
2018-04-30T12:27:58.625Z,996.59
2018-04-30T12:28:58.664Z,996.39
2018-04-30T12:29:58.690Z,996.35
2018-04-30T12:30:58.917Z,996.23
2018-04-30T12:31:58.742Z,996.24
2018-04-30T12:32:58.770Z,996.20
2018-04-30T12:34:58.833Z,996.40